createdAt,value
2018-12-27T00:48:06.197Z,23.40
2018-12-27T00:50:35.481Z,21.70
2018-12-27T00:53:05.104Z,20.23
2018-12-27T01:58:43.158Z,24.00
2018-12-27T02:01:12.531Z,24.80
2018-12-27T02:03:42.256Z,26.53
2018-12-27T03:10:00.769Z,20.37
2018-12-27T03:12:30.443Z,22.60
2018-12-27T03:15:00.243Z,23.10
2018-12-27T04:20:07.642Z,22.40
2018-12-27T04:22:36.776Z,25.87
2018-12-27T04:25:06.373Z,24.30
2018-12-27T04:35:36.455Z,23.27
2018-12-27T04:38:06.164Z,24.23
2018-12-27T04:40:35.343Z,22.20
2018-12-27T04:43:05.372Z,25.43
2018-12-27T04:45:34.945Z,23.03
2018-12-27T04:48:04.590Z,23.73
2018-12-27T04:50:33.817Z,25.50
2018-12-27T04:53:03.315Z,23.13
2018-12-27T04:55:32.487Z,24.90
2018-12-27T04:58:01.610Z,22.70
2018-12-27T05:00:30.792Z,23.03
2018-12-27T05:03:00.015Z,23.18
2018-12-27T05:05:29.943Z,22.75
2018-12-27T05:08:00.477Z,22.07
2018-12-27T05:10:30.447Z,21.85
2018-12-27T05:12:59.932Z,26.95
2018-12-27T05:15:29.086Z,24.00
2018-12-27T05:17:58.234Z,23.03
2018-12-27T05:20:27.359Z,23.60
2018-12-27T05:22:56.484Z,24.27
2018-12-27T05:25:25.684Z,25.83
2018-12-27T05:27:54.812Z,23.60
2018-12-27T05:30:23.928Z,24.63
2018-12-27T05:32:53.342Z,24.12
2018-12-27T06:39:37.204Z,27.10
2018-12-27T06:42:06.668Z,24.73
2018-12-27T06:44:35.904Z,26.27
2018-12-27T07:49:08.949Z,28.98
2018-12-27T07:51:38.080Z,29.67
2018-12-27T07:54:07.261Z,26.62
2018-12-27T08:59:38.337Z,23.10
2018-12-27T09:02:08.175Z,22.37
2018-12-27T09:04:37.323Z,19.40
2018-12-27T10:08:14.185Z,24.60
2018-12-27T10:10:43.425Z,25.40
2018-12-27T10:13:12.635Z,25.10
2018-12-27T11:19:56.996Z,31.90
2018-12-27T11:22:26.126Z,27.82
2018-12-27T11:24:55.347Z,30.27
2018-12-27T12:30:26.903Z,32.13
2018-12-27T12:32:56.022Z,31.20
2018-12-27T13:39:38.512Z,30.27
2018-12-27T13:42:07.688Z,30.17
2018-12-27T13:44:36.815Z,31.27
2018-12-27T14:06:05.819Z,32.03
2018-12-27T14:08:35.087Z,32.23
2018-12-27T14:11:04.329Z,29.02
2018-12-27T14:13:35.535Z,30.47
2018-12-27T14:16:04.844Z,28.70
2018-12-27T14:18:34.129Z,28.33
2018-12-27T14:21:03.679Z,32.50
2018-12-27T14:23:32.951Z,29.95
2018-12-27T14:26:02.283Z,32.63
2018-12-27T14:28:31.555Z,30.47
2018-12-27T14:31:00.870Z,30.60
2018-12-27T14:33:30.472Z,30.60
2018-12-27T14:36:01.775Z,30.80
2018-12-27T14:38:31.244Z,30.50
2018-12-27T14:41:01.917Z,30.80
2018-12-27T14:43:32.512Z,33.47
2018-12-27T14:46:01.787Z,31.77
2018-12-27T14:48:31.147Z,30.20
2018-12-27T14:51:00.803Z,32.17
2018-12-27T14:53:30.071Z,32.40
2018-12-27T14:56:00.044Z,30.08
2018-12-27T14:58:29.406Z,32.88
2018-12-27T15:00:58.715Z,29.90
2018-12-27T15:03:28.147Z,33.55
2018-12-27T15:05:57.452Z,30.73
2018-12-27T15:08:26.643Z,28.70
2018-12-27T15:10:57.341Z,28.43
2018-12-27T15:13:26.700Z,29.40
2018-12-27T15:15:56.055Z,31.30
2018-12-27T15:18:27.600Z,28.57
2018-12-27T15:20:56.418Z,29.63
2018-12-27T15:23:25.909Z,34.10
2018-12-27T15:25:55.062Z,31.87
2018-12-27T15:28:24.389Z,31.15
2018-12-27T15:30:53.686Z,31.00
2018-12-27T15:33:23.196Z,31.20
2018-12-27T15:35:52.723Z,31.33
2018-12-27T15:38:22.169Z,30.07
2018-12-27T15:40:51.786Z,30.25
2018-12-27T15:43:21.317Z,31.33
2018-12-27T15:45:50.520Z,28.20
2018-12-27T15:48:19.833Z,30.70
2018-12-27T15:50:49.057Z,28.00
2018-12-27T15:53:18.423Z,28.57
2018-12-27T15:55:47.598Z,29.57
2018-12-27T15:58:16.876Z,30.37
2018-12-27T16:00:46.222Z,31.43
2018-12-27T16:03:15.458Z,32.20
2018-12-27T16:05:45.047Z,28.70
2018-12-27T16:08:14.570Z,30.52
2018-12-27T16:10:43.867Z,28.47
2018-12-27T16:13:13.061Z,28.47
2018-12-27T16:15:43.260Z,30.65
2018-12-27T16:18:13.115Z,31.03
2018-12-27T16:20:42.344Z,31.52
2018-12-27T16:23:11.617Z,33.13
2018-12-27T16:25:40.923Z,29.07
2018-12-27T16:28:10.535Z,32.75
2018-12-27T16:30:40.182Z,31.63
2018-12-27T16:33:09.446Z,30.10
2018-12-27T16:35:38.754Z,29.80
2018-12-27T16:38:08.289Z,32.50
2018-12-27T16:40:37.731Z,29.60
2018-12-27T16:43:07.260Z,31.50
2018-12-27T16:45:36.528Z,31.80
2018-12-27T16:48:05.806Z,29.30
2018-12-27T16:50:35.379Z,31.15
2018-12-27T16:53:05.119Z,30.23
2018-12-27T16:55:34.400Z,33.58
2018-12-27T16:58:03.759Z,33.03
2018-12-27T17:00:33.423Z,29.47
2018-12-27T17:03:02.669Z,28.65
2018-12-27T17:05:32.255Z,29.40
2018-12-27T17:08:01.513Z,32.17
2018-12-27T17:10:31.131Z,29.43
2018-12-27T17:13:00.718Z,30.17
2018-12-27T17:15:30.087Z,30.43
2018-12-27T17:17:59.343Z,30.30
2018-12-27T17:20:28.596Z,29.70
2018-12-27T17:22:57.845Z,27.47
2018-12-27T17:25:27.043Z,27.40
2018-12-27T17:27:56.331Z,33.45
2018-12-27T17:30:25.573Z,33.83
2018-12-27T17:32:55.684Z,29.05
2018-12-27T17:35:25.170Z,28.43
2018-12-27T17:37:54.502Z,26.95
2018-12-27T17:40:24.102Z,27.85
2018-12-27T17:42:54.460Z,28.12
2018-12-27T17:45:23.918Z,26.47
2018-12-27T17:47:53.521Z,28.50
2018-12-27T17:50:22.792Z,27.55
2018-12-27T17:52:52.415Z,26.12
2018-12-27T17:55:21.666Z,28.40
2018-12-27T17:57:51.264Z,28.60
2018-12-27T18:00:20.520Z,26.07
2018-12-27T18:02:50.035Z,26.83
2018-12-27T18:05:19.389Z,25.27
2018-12-27T18:07:48.632Z,26.87
2018-12-27T18:10:18.228Z,27.30
2018-12-27T18:12:47.788Z,27.80
2018-12-27T18:15:17.109Z,29.63
2018-12-27T18:17:46.341Z,26.68
2018-12-27T18:20:15.619Z,25.63
2018-12-27T18:22:44.919Z,24.57
2018-12-27T18:25:14.481Z,26.37
2018-12-27T18:27:43.754Z,25.27
2018-12-27T18:30:13.347Z,24.23
2018-12-27T18:32:42.965Z,24.70
2018-12-27T18:35:12.468Z,27.27
2018-12-27T18:37:41.969Z,26.07
2018-12-27T18:40:11.572Z,25.80
2018-12-27T18:42:40.789Z,27.53
2018-12-27T18:45:13.868Z,23.87
2018-12-27T18:47:45.111Z,24.77
2018-12-27T18:50:15.507Z,26.33
2018-12-27T18:52:44.809Z,26.57
2018-12-27T18:55:20.058Z,26.13
2018-12-27T18:57:45.063Z,25.30
2018-12-27T19:00:14.429Z,27.45
2018-12-27T19:02:43.952Z,25.13
2018-12-27T19:05:13.541Z,29.17
2018-12-27T19:07:45.130Z,29.80
2018-12-27T19:10:13.944Z,30.90
2018-12-27T19:13:17.698Z,27.67
2018-12-27T19:15:59.669Z,29.00
2018-12-27T19:18:34.507Z,25.53
2018-12-27T19:21:27.177Z,29.40
2018-12-27T19:23:56.461Z,27.67
2018-12-27T19:26:25.738Z,25.87
2018-12-27T19:28:55.652Z,27.07
2018-12-27T19:31:24.959Z,27.37
2018-12-27T19:33:54.746Z,26.67
2018-12-27T19:36:23.968Z,32.47
2018-12-27T19:38:53.575Z,30.08
2018-12-27T19:41:22.848Z,28.03
2018-12-27T19:43:52.127Z,24.90
2018-12-27T19:46:21.686Z,24.97
2018-12-27T19:48:51.318Z,23.23
2018-12-27T19:51:20.596Z,24.30
2018-12-27T19:53:49.904Z,24.07
2018-12-27T19:56:19.128Z,26.50
2018-12-27T19:58:48.438Z,25.57
2018-12-27T20:01:17.741Z,25.17
2018-12-27T20:03:47.015Z,25.88
2018-12-27T20:06:16.558Z,24.10
2018-12-27T20:08:46.721Z,26.63
2018-12-27T20:11:16.110Z,25.10
2018-12-27T20:13:45.481Z,25.10
2018-12-27T20:16:15.120Z,24.33
2018-12-27T20:18:44.466Z,23.83
2018-12-27T20:21:14.084Z,22.00
2018-12-27T20:23:43.526Z,24.80
2018-12-27T20:26:12.863Z,24.40
2018-12-27T20:28:42.132Z,24.60
2018-12-27T20:31:11.396Z,26.17
2018-12-27T20:33:40.613Z,25.00
2018-12-27T20:36:09.875Z,29.50
2018-12-27T20:38:39.139Z,28.12
2018-12-27T20:41:08.765Z,26.73
2018-12-27T20:43:38.355Z,28.20
2018-12-27T20:46:07.627Z,27.90
2018-12-27T20:48:36.900Z,26.53
2018-12-27T20:51:06.264Z,28.35
2018-12-27T20:53:35.573Z,25.17
2018-12-27T20:56:05.136Z,27.07
2018-12-27T20:58:35.027Z,26.70
2018-12-27T21:01:04.292Z,25.97
2018-12-27T21:03:33.635Z,27.50
2018-12-27T21:06:02.873Z,27.67
2018-12-27T21:08:32.290Z,25.83
2018-12-27T21:11:02.189Z,25.85
2018-12-27T21:13:31.590Z,27.97
2018-12-27T21:16:01.425Z,27.48
2018-12-27T21:18:31.200Z,28.17
2018-12-27T21:21:00.502Z,25.17
2018-12-27T21:23:29.753Z,27.45
2018-12-27T21:25:59.145Z,28.40
2018-12-27T21:28:28.435Z,27.00
2018-12-27T21:30:57.702Z,27.20
2018-12-27T21:33:26.992Z,27.83
2018-12-27T21:35:56.299Z,27.87
2018-12-27T21:38:25.771Z,26.03
2018-12-27T21:40:55.378Z,28.37
2018-12-27T21:43:24.785Z,26.10
2018-12-27T21:45:54.016Z,26.40
2018-12-27T21:48:23.633Z,26.13
2018-12-27T21:50:53.178Z,24.25
2018-12-27T21:53:22.401Z,26.53
2018-12-27T21:55:51.717Z,26.97
2018-12-27T21:58:21.303Z,27.50
2018-12-27T22:00:50.681Z,27.53
2018-12-27T22:03:19.948Z,27.40
2018-12-27T22:05:49.324Z,27.90
2018-12-27T22:08:18.578Z,28.90
2018-12-27T22:10:47.845Z,28.13
2018-12-27T22:13:17.685Z,26.37
2018-12-27T22:15:46.927Z,26.93
2018-12-27T22:18:16.686Z,32.98
2018-12-27T22:20:45.926Z,30.07
2018-12-27T22:23:15.251Z,28.67
2018-12-27T22:25:44.867Z,28.20
2018-12-27T22:28:14.456Z,29.27
2018-12-27T22:30:45.370Z,25.68
2018-12-27T22:33:14.945Z,27.30
2018-12-27T22:35:44.293Z,28.07
2018-12-27T22:38:13.988Z,27.87
2018-12-27T22:40:43.358Z,25.77
2018-12-27T22:43:12.716Z,25.47
2018-12-27T22:45:42.034Z,28.50
2018-12-27T22:48:11.347Z,27.53
2018-12-27T22:50:41.410Z,29.03
2018-12-27T22:53:10.958Z,26.87
2018-12-27T22:55:41.289Z,25.72
2018-12-27T22:58:10.519Z,27.33
2018-12-27T23:00:40.227Z,26.67
2018-12-27T23:03:09.919Z,29.10
2018-12-27T23:05:39.075Z,27.85
2018-12-27T23:08:08.476Z,26.67
2018-12-27T23:10:37.752Z,25.32
2018-12-27T23:13:07.680Z,29.10
2018-12-27T23:15:37.014Z,28.10
2018-12-27T23:18:06.658Z,29.23
2018-12-27T23:20:36.576Z,29.27
2018-12-27T23:23:05.871Z,28.83
2018-12-27T23:25:35.530Z,26.60
2018-12-27T23:28:04.777Z,27.27
2018-12-27T23:30:34.023Z,28.03
2018-12-27T23:33:04.533Z,29.90
2018-12-27T23:35:33.820Z,27.10
2018-12-27T23:38:04.700Z,28.30
2018-12-27T23:40:34.092Z,28.90
2018-12-27T23:43:03.714Z,29.67
2018-12-27T23:45:32.935Z,28.80
2018-12-27T23:48:06.684Z,29.60
2018-12-27T23:50:35.919Z,28.57
2018-12-27T23:53:05.137Z,28.32
2018-12-27T23:55:34.464Z,27.75
2018-12-27T23:58:04.091Z,27.00
